createdAt,value
2019-01-31T00:02:43.598Z,3.24
2019-01-31T00:05:58.341Z,3.27
2019-01-31T00:09:01.125Z,3.30
2019-01-31T00:12:16.249Z,3.33
2019-01-31T00:15:12.835Z,3.41
2019-01-31T00:18:05.901Z,3.20
2019-01-31T00:20:56.083Z,2.74
2019-01-31T00:23:49.214Z,3.31
2019-01-31T00:26:42.255Z,3.37
2019-01-31T00:29:32.810Z,3.52
2019-01-31T00:32:31.993Z,3.83
2019-01-31T00:35:27.981Z,3.78
2019-01-31T00:38:27.014Z,3.51
2019-01-31T00:41:41.981Z,3.93
2019-01-31T00:44:50.295Z,3.97
2019-01-31T00:48:03.830Z,3.86
2019-01-31T00:51:00.574Z,3.73
2019-01-31T00:54:03.153Z,3.23
2019-01-31T00:57:11.578Z,3.32
2019-01-31T01:00:11.045Z,3.41
2019-01-31T01:03:03.647Z,3.31
2019-01-31T01:05:54.070Z,3.19
2019-01-31T01:08:44.412Z,3.14
2019-01-31T01:11:55.589Z,3.36
2019-01-31T01:14:57.755Z,3.40
2019-01-31T01:17:47.946Z,3.34
2019-01-31T01:20:50.524Z,3.68
2019-01-31T01:23:46.671Z,3.76
2019-01-31T01:26:43.087Z,3.57
2019-01-31T01:29:42.652Z,3.42
2019-01-31T01:32:41.887Z,3.53
2019-01-31T01:35:32.196Z,3.24
2019-01-31T01:38:43.472Z,3.58
2019-01-31T01:41:33.868Z,3.68
2019-01-31T01:44:27.229Z,3.32
2019-01-31T01:47:20.897Z,2.88
2019-01-31T01:50:23.270Z,2.76
2019-01-31T01:53:49.206Z,2.60
2019-01-31T01:56:52.085Z,2.73
2019-01-31T01:59:45.042Z,2.78
2019-01-31T02:02:41.985Z,3.11
2019-01-31T02:05:53.382Z,2.72
2019-01-31T02:09:01.509Z,2.76
2019-01-31T02:12:09.868Z,2.61
2019-01-31T02:15:19.747Z,3.12
2019-01-31T02:18:10.244Z,2.90
2019-01-31T02:21:22.036Z,2.92
2019-01-31T02:24:11.919Z,2.72
2019-01-31T02:27:27.211Z,2.74
2019-01-31T02:30:29.479Z,2.69
2019-01-31T02:33:20.139Z,2.89
2019-01-31T02:36:19.476Z,3.20
2019-01-31T02:39:15.803Z,3.15
2019-01-31T02:42:40.092Z,3.04
2019-01-31T02:45:47.686Z,3.40
2019-01-31T02:48:37.809Z,3.15
2019-01-31T02:51:44.756Z,3.20
2019-01-31T02:54:41.296Z,2.94
2019-01-31T02:57:40.188Z,3.36
2019-01-31T03:00:42.598Z,3.35
2019-01-31T03:03:50.157Z,3.50
2019-01-31T03:06:59.606Z,3.04
2019-01-31T03:10:08.764Z,2.93
2019-01-31T03:13:01.586Z,2.90
2019-01-31T03:15:52.081Z,2.82
2019-01-31T03:18:50.944Z,2.84
2019-01-31T03:21:47.611Z,3.21
2019-01-31T03:25:02.785Z,3.03
2019-01-31T03:27:55.643Z,3.19
2019-01-31T03:31:21.741Z,3.36
2019-01-31T03:34:45.443Z,3.66
2019-01-31T03:37:48.296Z,3.62
2019-01-31T03:40:44.116Z,3.83
2019-01-31T03:43:37.307Z,3.67
2019-01-31T03:46:33.425Z,3.83
2019-01-31T03:49:23.315Z,3.87
2019-01-31T03:52:44.325Z,3.94
2019-01-31T03:55:37.487Z,3.51
2019-01-31T03:58:30.848Z,3.03
2019-01-31T04:01:38.450Z,2.71
2019-01-31T04:04:32.035Z,2.90
2019-01-31T04:07:19.232Z,3.07
2019-01-31T04:10:18.748Z,3.27
2019-01-31T04:12:58.183Z,3.35
2019-01-31T04:15:46.325Z,3.39
2019-01-31T04:18:33.092Z,3.23
2019-01-31T04:21:19.889Z,3.30
2019-01-31T04:24:07.508Z,3.47
2019-01-31T04:26:55.090Z,3.45
2019-01-31T04:29:42.616Z,3.44
2019-01-31T04:32:29.936Z,3.43
2019-01-31T04:35:17.287Z,3.44
2019-01-31T04:38:04.586Z,3.32
2019-01-31T04:40:51.695Z,3.25
2019-01-31T04:43:39.049Z,3.33
2019-01-31T04:46:26.548Z,3.33
2019-01-31T04:49:14.336Z,3.26
2019-01-31T04:52:01.412Z,3.26
2019-01-31T04:54:49.022Z,3.25
2019-01-31T04:57:36.446Z,3.25
2019-01-31T05:00:23.870Z,3.05
2019-01-31T05:03:11.712Z,2.99
2019-01-31T05:05:59.094Z,2.94
2019-01-31T05:08:46.860Z,2.90
2019-01-31T05:11:34.591Z,2.82
2019-01-31T05:14:22.120Z,2.74
2019-01-31T05:17:10.055Z,2.70
2019-01-31T05:19:57.477Z,2.57
2019-01-31T05:22:45.136Z,2.51
2019-01-31T05:25:32.252Z,2.52
2019-01-31T05:28:19.084Z,2.31
2019-01-31T05:31:06.068Z,2.37
2019-01-31T05:33:53.143Z,2.40
2019-01-31T05:36:40.253Z,2.44
2019-01-31T05:39:27.296Z,2.52
2019-01-31T05:42:15.645Z,2.49
2019-01-31T05:45:03.069Z,2.36
2019-01-31T05:47:50.086Z,2.25
2019-01-31T05:50:37.408Z,2.16
2019-01-31T05:53:24.853Z,2.00
2019-01-31T05:56:12.248Z,1.97
2019-01-31T05:58:59.365Z,1.83
2019-01-31T06:01:46.992Z,1.84
2019-01-31T06:04:34.522Z,1.87
2019-01-31T06:07:23.070Z,1.68
2019-01-31T06:10:12.448Z,1.65
2019-01-31T06:12:59.866Z,1.64
2019-01-31T06:15:47.183Z,1.61
2019-01-31T06:18:34.533Z,1.54
2019-01-31T06:21:22.035Z,1.04
2019-01-31T06:24:12.736Z,1.07
2019-01-31T06:26:59.877Z,0.90
2019-01-31T06:29:47.174Z,1.09
2019-01-31T06:32:34.597Z,1.24
2019-01-31T06:35:24.274Z,1.08
2019-01-31T06:38:11.492Z,1.19
2019-01-31T06:40:59.033Z,1.22
2019-01-31T06:43:46.337Z,0.84
2019-01-31T06:46:33.966Z,0.84
2019-01-31T06:49:21.188Z,-0.53
2019-01-31T06:52:08.250Z,1.14
2019-01-31T06:54:55.356Z,1.30
2019-01-31T06:57:42.653Z,1.28
2019-01-31T07:00:29.908Z,1.43
2019-01-31T07:03:17.101Z,1.52
2019-01-31T07:06:04.899Z,1.27
2019-01-31T07:08:52.233Z,1.39
2019-01-31T07:11:39.349Z,1.27
2019-01-31T07:14:27.084Z,1.16
2019-01-31T07:17:14.509Z,1.14
2019-01-31T07:20:01.632Z,1.21
2019-01-31T07:22:48.843Z,1.21
2019-01-31T07:25:37.286Z,1.45
2019-01-31T07:28:24.828Z,1.60
2019-01-31T07:31:13.476Z,1.66
2019-01-31T07:34:01.913Z,1.84
2019-01-31T07:36:49.245Z,2.00
2019-01-31T07:39:36.604Z,2.12
2019-01-31T07:42:24.087Z,2.01
2019-01-31T07:45:17.762Z,2.08
2019-01-31T07:48:05.894Z,2.19
2019-01-31T07:50:54.245Z,2.34
2019-01-31T07:53:41.567Z,2.59
2019-01-31T07:56:29.344Z,2.77
2019-01-31T07:59:16.408Z,2.87
2019-01-31T08:02:04.145Z,3.02
2019-01-31T08:04:51.462Z,3.10
2019-01-31T08:07:39.090Z,3.17
2019-01-31T08:10:38.331Z,3.13
2019-01-31T08:13:25.773Z,3.21
2019-01-31T08:16:12.633Z,3.35
2019-01-31T08:19:00.359Z,3.53
2019-01-31T08:21:47.986Z,3.64
2019-01-31T08:24:35.001Z,3.72
2019-01-31T08:27:22.073Z,3.84
2019-01-31T08:30:14.877Z,4.02
2019-01-31T08:33:01.872Z,4.24
2019-01-31T08:35:49.000Z,4.37
2019-01-31T08:38:36.786Z,4.19
2019-01-31T08:41:24.098Z,4.45
2019-01-31T08:44:11.385Z,4.63
2019-01-31T08:46:58.738Z,4.70
2019-01-31T08:49:46.224Z,5.05
2019-01-31T08:52:33.544Z,5.34
2019-01-31T08:55:20.971Z,5.51
2019-01-31T08:58:08.803Z,5.63
2019-01-31T09:00:56.532Z,5.76
2019-01-31T09:03:43.857Z,5.86
2019-01-31T09:06:31.186Z,5.86
2019-01-31T09:09:19.312Z,6.02
2019-01-31T09:12:15.089Z,6.20
2019-01-31T09:14:55.903Z,6.34
2019-01-31T09:17:43.244Z,6.54
2019-01-31T09:20:40.273Z,6.60
2019-01-31T09:23:46.240Z,6.70
2019-01-31T09:26:41.699Z,6.76
2019-01-31T09:29:34.670Z,5.46
2019-01-31T09:32:27.754Z,5.42
2019-01-31T09:35:20.915Z,6.17
2019-01-31T09:38:20.735Z,6.14
2019-01-31T09:41:28.325Z,6.05
2019-01-31T09:44:30.492Z,4.69
2019-01-31T09:47:23.696Z,5.32
2019-01-31T09:50:28.104Z,6.11
2019-01-31T09:53:51.439Z,6.21
2019-01-31T09:57:19.005Z,3.70
2019-01-31T10:00:27.567Z,6.04
2019-01-31T10:03:42.941Z,5.40
2019-01-31T10:06:33.091Z,6.31
2019-01-31T10:09:23.303Z,6.87
2019-01-31T10:12:16.816Z,5.78
2019-01-31T10:15:21.830Z,5.43
2019-01-31T10:18:18.341Z,5.08
2019-01-31T10:21:15.165Z,5.15
2019-01-31T10:24:17.833Z,4.73
2019-01-31T10:27:28.928Z,4.32
2019-01-31T10:30:22.184Z,4.70
2019-01-31T10:33:24.772Z,5.15
2019-01-31T10:36:30.527Z,6.04
2019-01-31T10:39:35.734Z,6.88
2019-01-31T10:42:28.481Z,7.15
2019-01-31T10:45:24.807Z,7.17
2019-01-31T10:48:33.326Z,6.47
2019-01-31T10:51:26.620Z,6.73
2019-01-31T10:54:23.155Z,6.66
2019-01-31T10:57:16.931Z,6.27
2019-01-31T11:00:12.351Z,7.03
2019-01-31T11:03:37.294Z,7.48
2019-01-31T11:06:33.887Z,7.79
2019-01-31T11:09:36.477Z,7.45
2019-01-31T11:12:35.684Z,7.97
2019-01-31T11:15:43.978Z,8.21
2019-01-31T11:18:40.618Z,8.39
2019-01-31T11:21:42.686Z,8.43
2019-01-31T11:24:47.813Z,8.37
2019-01-31T11:27:59.210Z,8.50
2019-01-31T11:31:05.575Z,8.73
2019-01-31T11:34:14.402Z,8.57
2019-01-31T11:37:13.605Z,8.27
2019-01-31T11:40:37.690Z,8.33
2019-01-31T11:43:31.765Z,8.10
2019-01-31T11:46:39.980Z,8.06
2019-01-31T11:49:45.307Z,8.39
2019-01-31T11:52:45.442Z,8.25
2019-01-31T11:55:54.481Z,8.64
2019-01-31T11:58:50.295Z,8.73
2019-01-31T12:01:38.333Z,8.67
2019-01-31T12:04:25.654Z,8.36
2019-01-31T12:07:13.558Z,8.02
2019-01-31T12:10:01.018Z,8.26
2019-01-31T12:12:48.440Z,8.67
2019-01-31T12:15:36.065Z,8.58
2019-01-31T12:18:23.294Z,8.44
2019-01-31T12:21:10.790Z,8.74
2019-01-31T12:23:58.133Z,8.82
2019-01-31T12:26:45.459Z,9.02
2019-01-31T12:29:32.981Z,8.92
2019-01-31T12:32:20.694Z,8.99
2019-01-31T12:35:08.609Z,9.08
2019-01-31T12:37:55.777Z,9.08
2019-01-31T12:40:43.507Z,8.30
2019-01-31T12:43:35.215Z,7.97
2019-01-31T12:46:19.575Z,8.21
2019-01-31T12:49:07.303Z,8.57
2019-01-31T12:51:55.242Z,8.35
2019-01-31T12:54:42.667Z,8.02
2019-01-31T12:57:30.605Z,7.93
2019-01-31T13:00:27.145Z,7.98
2019-01-31T13:03:14.360Z,8.15
2019-01-31T13:06:02.393Z,8.31
2019-01-31T13:08:50.129Z,8.44
2019-01-31T13:11:37.857Z,8.50
2019-01-31T13:14:24.769Z,8.15
2019-01-31T13:17:12.406Z,8.51
2019-01-31T13:20:00.543Z,8.80
2019-01-31T13:22:49.547Z,8.88
2019-01-31T13:25:37.138Z,8.99
2019-01-31T13:28:24.663Z,8.96
2019-01-31T13:31:11.976Z,9.02
2019-01-31T13:33:58.886Z,8.98
2019-01-31T13:36:46.423Z,8.90
2019-01-31T13:39:33.744Z,8.90
2019-01-31T13:42:21.263Z,8.53
2019-01-31T13:45:11.697Z,7.78
2019-01-31T13:48:02.164Z,8.03
2019-01-31T13:50:49.541Z,7.99
2019-01-31T13:53:37.334Z,7.87
2019-01-31T13:56:24.265Z,8.24
2019-01-31T13:59:11.641Z,8.49
2019-01-31T14:01:59.065Z,8.61
2019-01-31T14:04:46.695Z,8.61
2019-01-31T14:07:33.815Z,8.66
2019-01-31T14:10:29.576Z,8.26
2019-01-31T14:13:16.755Z,7.86
2019-01-31T14:16:04.480Z,7.92
2019-01-31T14:18:53.484Z,7.98
2019-01-31T14:21:40.649Z,7.98
2019-01-31T14:24:28.092Z,8.00
2019-01-31T14:27:15.816Z,7.98
2019-01-31T14:30:03.040Z,7.86
2019-01-31T14:32:50.870Z,7.75
2019-01-31T14:35:38.807Z,7.77
2019-01-31T14:38:26.230Z,7.74
2019-01-31T14:41:13.344Z,7.69
2019-01-31T14:44:00.975Z,7.60
2019-01-31T14:46:47.948Z,7.45
2019-01-31T14:49:35.211Z,7.25
2019-01-31T14:52:22.733Z,7.18
2019-01-31T14:55:11.437Z,7.15
2019-01-31T14:57:58.915Z,7.10
2019-01-31T15:00:46.548Z,7.09
2019-01-31T15:03:34.174Z,6.98
2019-01-31T15:06:21.497Z,6.92
2019-01-31T15:09:09.432Z,6.92
2019-01-31T15:11:56.753Z,6.86
2019-01-31T15:14:43.664Z,6.75
2019-01-31T15:17:30.793Z,6.81
2019-01-31T15:20:34.440Z,6.98
2019-01-31T15:23:13.099Z,7.05
2019-01-31T15:26:00.424Z,6.96
2019-01-31T15:28:47.439Z,6.84
2019-01-31T15:31:34.864Z,6.81
2019-01-31T15:34:22.656Z,6.78
2019-01-31T15:37:10.333Z,6.55
2019-01-31T15:39:59.508Z,6.59
2019-01-31T15:42:48.958Z,6.56
2019-01-31T15:45:35.568Z,6.78
2019-01-31T15:48:25.379Z,6.86
2019-01-31T15:51:12.769Z,6.84
2019-01-31T15:54:00.483Z,6.86
2019-01-31T15:56:47.971Z,6.92
2019-01-31T15:59:35.553Z,6.85
2019-01-31T16:02:22.628Z,6.80
2019-01-31T16:05:18.848Z,6.77
2019-01-31T16:07:59.749Z,6.73
2019-01-31T16:10:47.550Z,6.72
2019-01-31T16:13:34.932Z,6.69
2019-01-31T16:16:22.043Z,6.66
2019-01-31T16:19:09.679Z,6.50
2019-01-31T16:21:56.894Z,6.47
2019-01-31T16:24:44.623Z,6.48
2019-01-31T16:27:32.460Z,6.41
2019-01-31T16:30:20.814Z,6.30
2019-01-31T16:33:08.229Z,6.16
2019-01-31T16:35:55.717Z,6.14
2019-01-31T16:38:42.989Z,6.08
2019-01-31T16:41:30.401Z,5.98
2019-01-31T16:44:18.128Z,5.99
2019-01-31T16:47:06.077Z,5.96
2019-01-31T16:49:54.922Z,5.79
2019-01-31T16:52:42.049Z,5.85
2019-01-31T16:55:30.374Z,5.86
2019-01-31T16:58:17.914Z,5.97
2019-01-31T17:01:06.182Z,5.95
2019-01-31T17:03:53.789Z,5.93
2019-01-31T17:06:41.308Z,5.86
2019-01-31T17:09:28.940Z,5.79
2019-01-31T17:12:16.884Z,5.63
2019-01-31T17:15:05.735Z,5.51
2019-01-31T17:17:53.197Z,5.40
2019-01-31T17:20:42.148Z,5.30
2019-01-31T17:23:29.528Z,5.25
2019-01-31T17:26:16.860Z,5.21
2019-01-31T17:29:03.978Z,5.15
2019-01-31T17:31:51.201Z,5.10
2019-01-31T17:34:38.533Z,5.10
2019-01-31T17:37:26.249Z,5.16
2019-01-31T17:40:22.278Z,5.27
2019-01-31T17:43:09.802Z,5.22
2019-01-31T17:45:57.534Z,5.22
2019-01-31T17:48:44.964Z,5.22
2019-01-31T17:51:32.492Z,5.18
2019-01-31T17:54:19.856Z,5.20
2019-01-31T17:57:07.505Z,5.19
2019-01-31T17:59:54.654Z,5.16
2019-01-31T18:02:45.391Z,5.00
2019-01-31T18:05:31.039Z,4.66
2019-01-31T18:08:18.359Z,4.64
2019-01-31T18:11:05.788Z,4.52
2019-01-31T18:13:53.104Z,4.53
2019-01-31T18:16:40.529Z,4.47
2019-01-31T18:19:28.056Z,4.67
2019-01-31T18:22:15.183Z,4.78
2019-01-31T18:25:02.706Z,4.84
2019-01-31T18:27:52.967Z,4.95
2019-01-31T18:30:39.307Z,4.98
2019-01-31T18:33:27.601Z,4.96
2019-01-31T18:36:15.977Z,4.98
2019-01-31T18:39:05.144Z,4.96
2019-01-31T18:41:52.885Z,4.93
2019-01-31T18:44:40.105Z,4.85
2019-01-31T18:47:27.585Z,4.80
2019-01-31T18:50:18.853Z,4.87
2019-01-31T18:53:06.321Z,5.02
2019-01-31T18:55:53.309Z,5.02
2019-01-31T18:58:40.616Z,5.04
2019-01-31T19:01:27.711Z,5.09
2019-01-31T19:04:15.241Z,5.13
2019-01-31T19:07:02.587Z,5.00
2019-01-31T19:09:50.040Z,4.87
2019-01-31T19:12:37.202Z,4.74
2019-01-31T19:15:26.433Z,4.67
2019-01-31T19:18:13.583Z,4.74
2019-01-31T19:21:00.905Z,4.84
2019-01-31T19:23:48.534Z,4.80
2019-01-31T19:26:36.266Z,4.79
2019-01-31T19:29:24.424Z,4.65
2019-01-31T19:32:11.891Z,4.44
2019-01-31T19:34:59.167Z,4.37
2019-01-31T19:37:46.575Z,4.37
2019-01-31T19:40:36.573Z,4.49
2019-01-31T19:43:23.577Z,4.45
2019-01-31T19:46:16.635Z,4.53
2019-01-31T19:48:59.771Z,4.46
2019-01-31T19:51:47.074Z,4.35
2019-01-31T19:54:34.397Z,4.42
2019-01-31T19:57:21.779Z,4.39
2019-01-31T20:00:12.522Z,4.49
2019-01-31T20:02:59.786Z,4.60
2019-01-31T20:05:46.957Z,3.37
2019-01-31T20:08:34.178Z,4.84
2019-01-31T20:11:21.608Z,4.94
2019-01-31T20:14:09.238Z,4.55
2019-01-31T20:16:56.850Z,4.53
2019-01-31T20:19:44.284Z,4.63
2019-01-31T20:22:32.222Z,4.71
2019-01-31T20:25:20.257Z,4.55
2019-01-31T20:28:07.683Z,4.62
2019-01-31T20:30:55.003Z,4.70
2019-01-31T20:33:42.358Z,4.68
2019-01-31T20:36:32.051Z,4.70
2019-01-31T20:39:19.429Z,4.64
2019-01-31T20:42:06.733Z,4.56
2019-01-31T20:44:54.279Z,4.49
2019-01-31T20:47:41.412Z,3.95
2019-01-31T20:50:31.174Z,4.11
2019-01-31T20:53:18.798Z,4.13
2019-01-31T20:56:06.250Z,4.00
2019-01-31T20:58:53.935Z,4.03
2019-01-31T21:01:41.275Z,4.03
2019-01-31T21:04:28.660Z,3.64
2019-01-31T21:07:16.144Z,3.56
2019-01-31T21:10:05.085Z,3.37
2019-01-31T21:12:52.922Z,3.47
2019-01-31T21:15:40.052Z,3.58
2019-01-31T21:18:27.254Z,3.52
2019-01-31T21:21:15.214Z,3.32
2019-01-31T21:24:02.511Z,3.47
2019-01-31T21:26:49.357Z,3.04
2019-01-31T21:29:36.745Z,3.20
2019-01-31T21:32:23.950Z,3.29
2019-01-31T21:35:11.593Z,3.43
2019-01-31T21:37:59.127Z,3.48
2019-01-31T21:40:47.362Z,3.46
2019-01-31T21:43:35.094Z,3.49
2019-01-31T21:46:22.210Z,3.43
2019-01-31T21:49:10.212Z,3.39
2019-01-31T21:51:57.581Z,3.04
2019-01-31T21:54:44.618Z,3.18
2019-01-31T21:57:32.007Z,3.21
2019-01-31T22:00:23.222Z,3.25
2019-01-31T22:03:10.499Z,3.02
2019-01-31T22:05:57.585Z,3.08
2019-01-31T22:08:44.674Z,3.02
2019-01-31T22:11:32.100Z,3.05
2019-01-31T22:14:19.725Z,3.06
2019-01-31T22:17:14.326Z,2.92
2019-01-31T22:19:55.702Z,2.72
2019-01-31T22:22:43.231Z,2.67
2019-01-31T22:25:30.775Z,2.68
2019-01-31T22:28:18.590Z,2.59
2019-01-31T22:31:06.025Z,2.69
2019-01-31T22:33:53.960Z,2.33
2019-01-31T22:36:43.560Z,2.31
2019-01-31T22:39:30.819Z,2.40
2019-01-31T22:42:18.370Z,2.43
2019-01-31T22:45:09.479Z,2.42
2019-01-31T22:47:57.108Z,2.25
2019-01-31T22:50:44.434Z,2.05
2019-01-31T22:53:31.670Z,1.87
2019-01-31T22:56:18.765Z,2.19
2019-01-31T22:59:06.601Z,2.47
2019-01-31T23:01:53.920Z,2.57
2019-01-31T23:04:41.037Z,2.55
2019-01-31T23:07:28.572Z,2.43
2019-01-31T23:10:16.192Z,2.35
2019-01-31T23:13:03.513Z,2.26
2019-01-31T23:15:50.631Z,2.35
2019-01-31T23:18:38.160Z,2.38
2019-01-31T23:21:25.786Z,2.41
2019-01-31T23:24:13.524Z,2.34
2019-01-31T23:27:01.247Z,2.36
2019-01-31T23:29:48.877Z,2.36
2019-01-31T23:32:36.153Z,2.35
2019-01-31T23:35:24.032Z,2.18
2019-01-31T23:38:11.253Z,2.06
2019-01-31T23:40:59.007Z,2.13
2019-01-31T23:43:46.366Z,2.09
2019-01-31T23:46:33.733Z,2.07
2019-01-31T23:49:21.425Z,2.08
2019-01-31T23:52:08.375Z,2.18
2019-01-31T23:54:55.522Z,2.03
2019-01-31T23:57:42.773Z,1.92
